sensor_id;sensor_type;location;lat;lon;timestamp;pressure;altitude;pressure_sealevel;temperature;humidity
24234;BME280;12365;43.554;1.388;2024-02-21T00:01:16;101039.63;;;10.04;57.85
24234;BME280;12365;43.554;1.388;2024-02-21T00:03:42;101042.03;;;10.01;57.82
24234;BME280;12365;43.554;1.388;2024-02-21T00:06:08;101048.81;;;9.98;58.12
24234;BME280;12365;43.554;1.388;2024-02-21T00:08:33;101051.31;;;9.97;58.14
24234;BME280;12365;43.554;1.388;2024-02-21T00:10:58;101053.38;;;9.89;58.25
24234;BME280;12365;43.554;1.388;2024-02-21T00:13:25;101051.22;;;9.95;57.80
24234;BME280;12365;43.554;1.388;2024-02-21T00:15:50;101042.38;;;9.93;57.88
24234;BME280;12365;43.554;1.388;2024-02-21T00:18:16;101050.00;;;9.90;58.25
24234;BME280;12365;43.554;1.388;2024-02-21T00:20:41;101044.78;;;9.90;58.13
24234;BME280;12365;43.554;1.388;2024-02-21T00:23:06;101050.88;;;9.91;58.14
24234;BME280;12365;43.554;1.388;2024-02-21T00:25:32;101044.88;;;9.92;57.97
24234;BME280;12365;43.554;1.388;2024-02-21T00:27:57;101038.75;;;9.91;58.18
24234;BME280;12365;43.554;1.388;2024-02-21T00:30:22;101027.31;;;9.89;57.97
24234;BME280;12365;43.554;1.388;2024-02-21T00:32:48;101019.50;;;9.89;58.03
24234;BME280;12365;43.554;1.388;2024-02-21T00:35:14;101008.84;;;9.86;58.20
24234;BME280;12365;43.554;1.388;2024-02-21T00:37:39;101007.84;;;9.84;58.17
24234;BME280;12365;43.554;1.388;2024-02-21T00:40:05;100994.72;;;9.83;58.05
24234;BME280;12365;43.554;1.388;2024-02-21T00:42:31;100991.97;;;9.81;57.97
24234;BME280;12365;43.554;1.388;2024-02-21T00:44:56;100984.03;;;9.80;58.41
24234;BME280;12365;43.554;1.388;2024-02-21T00:47:22;100976.81;;;9.75;58.04
24234;BME280;12365;43.554;1.388;2024-02-21T00:49:47;100977.72;;;9.76;58.40
24234;BME280;12365;43.554;1.388;2024-02-21T00:52:12;100966.41;;;9.75;58.54
24234;BME280;12365;43.554;1.388;2024-02-21T00:54:38;100957.78;;;9.76;58.26
24234;BME280;12365;43.554;1.388;2024-02-21T00:57:03;100951.66;;;9.76;58.54
24234;BME280;12365;43.554;1.388;2024-02-21T00:59:28;100944.88;;;9.78;58.59
24234;BME280;12365;43.554;1.388;2024-02-21T01:01:54;100940.53;;;9.79;58.53
24234;BME280;12365;43.554;1.388;2024-02-21T01:04:19;100944.16;;;9.81;58.34
24234;BME280;12365;43.554;1.388;2024-02-21T01:06:44;100940.97;;;9.85;58.39
24234;BME280;12365;43.554;1.388;2024-02-21T01:09:13;100923.66;;;9.85;58.52
24234;BME280;12365;43.554;1.388;2024-02-21T01:11:39;100910.63;;;9.85;58.76
24234;BME280;12365;43.554;1.388;2024-02-21T01:14:04;100899.25;;;9.85;58.74
24234;BME280;12365;43.554;1.388;2024-02-21T01:16:30;100897.78;;;9.88;58.74
24234;BME280;12365;43.554;1.388;2024-02-21T01:18:55;100892.56;;;9.88;58.46
24234;BME280;12365;43.554;1.388;2024-02-21T01:21:20;100885.66;;;9.89;58.80
24234;BME280;12365;43.554;1.388;2024-02-21T01:23:46;100872.50;;;9.87;58.65
24234;BME280;12365;43.554;1.388;2024-02-21T01:26:11;100873.44;;;9.88;58.57
24234;BME280;12365;43.554;1.388;2024-02-21T01:28:41;100879.53;;;9.88;58.64
24234;BME280;12365;43.554;1.388;2024-02-21T01:31:06;100875.91;;;9.86;58.89
24234;BME280;12365;43.554;1.388;2024-02-21T01:33:32;100868.09;;;9.86;59.06
24234;BME280;12365;43.554;1.388;2024-02-21T01:36:03;100858.50;;;9.85;58.78
24234;BME280;12365;43.554;1.388;2024-02-21T01:38:29;100865.50;;;9.86;58.88
24234;BME280;12365;43.554;1.388;2024-02-21T01:40:55;100863.69;;;9.85;59.03
24234;BME280;12365;43.554;1.388;2024-02-21T01:43:22;100857.47;;;9.83;58.72
24234;BME280;12365;43.554;1.388;2024-02-21T01:45:52;100858.25;;;9.82;58.91
24234;BME280;12365;43.554;1.388;2024-02-21T01:48:19;100852.06;;;9.80;58.89
24234;BME280;12365;43.554;1.388;2024-02-21T01:50:46;100843.09;;;9.76;58.81
24234;BME280;12365;43.554;1.388;2024-02-21T01:53:13;100857.84;;;9.76;59.40
24234;BME280;12365;43.554;1.388;2024-02-21T01:55:45;100853.31;;;9.73;59.05
24234;BME280;12365;43.554;1.388;2024-02-21T01:58:12;100846.19;;;9.71;58.97
24234;BME280;12365;43.554;1.388;2024-02-21T02:00:41;100836.34;;;9.67;59.23
24234;BME280;12365;43.554;1.388;2024-02-21T02:03:08;100842.25;;;9.64;59.34
24234;BME280;12365;43.554;1.388;2024-02-21T02:05:35;100829.16;;;9.63;59.17
24234;BME280;12365;43.554;1.388;2024-02-21T02:08:01;100835.94;;;9.61;59.43
24234;BME280;12365;43.554;1.388;2024-02-21T02:10:26;100836.66;;;9.58;59.09
24234;BME280;12365;43.554;1.388;2024-02-21T02:12:52;100826.81;;;9.54;59.27
24234;BME280;12365;43.554;1.388;2024-02-21T02:15:17;100834.53;;;9.52;59.45
24234;BME280;12365;43.554;1.388;2024-02-21T02:17:43;100826.72;;;9.52;59.59
24234;BME280;12365;43.554;1.388;2024-02-21T02:20:09;100825.69;;;9.50;59.46
24234;BME280;12365;43.554;1.388;2024-02-21T02:22:36;100816.06;;;9.49;59.28
24234;BME280;12365;43.554;1.388;2024-02-21T02:25:03;100812.47;;;9.47;59.61
24234;BME280;12365;43.554;1.388;2024-02-21T02:27:29;100813.84;;;9.42;59.49
24234;BME280;12365;43.554;1.388;2024-02-21T02:29:54;100812.72;;;9.39;59.60
24234;BME280;12365;43.554;1.388;2024-02-21T02:32:19;100809.22;;;9.38;59.81
24234;BME280;12365;43.554;1.388;2024-02-21T02:34:45;100807.31;;;9.36;59.66
24234;BME280;12365;43.554;1.388;2024-02-21T02:37:10;100805.41;;;9.33;59.74
24234;BME280;12365;43.554;1.388;2024-02-21T02:39:35;100811.41;;;9.32;59.80
24234;BME280;12365;43.554;1.388;2024-02-21T02:42:01;100801.56;;;9.28;59.84
24234;BME280;12365;43.554;1.388;2024-02-21T02:44:27;100801.16;;;9.22;59.95
24234;BME280;12365;43.554;1.388;2024-02-21T02:46:52;100795.81;;;9.20;59.93
24234;BME280;12365;43.554;1.388;2024-02-21T02:49:18;100799.00;;;9.16;59.99
24234;BME280;12365;43.554;1.388;2024-02-21T02:51:43;100781.25;;;9.10;59.88
24234;BME280;12365;43.554;1.388;2024-02-21T02:54:09;100771.44;;;9.06;59.86
24234;BME280;12365;43.554;1.388;2024-02-21T02:56:35;100771.22;;;9.03;60.11
24234;BME280;12365;43.554;1.388;2024-02-21T02:59:00;100768.41;;;9.00;59.97
24234;BME280;12365;43.554;1.388;2024-02-21T03:01:25;100756.75;;;8.95;59.99
24234;BME280;12365;43.554;1.388;2024-02-21T03:03:51;100758.03;;;8.88;59.97
24234;BME280;12365;43.554;1.388;2024-02-21T03:06:16;100757.94;;;8.87;59.94
24234;BME280;12365;43.554;1.388;2024-02-21T03:08:42;100747.19;;;8.82;60.20
24234;BME280;12365;43.554;1.388;2024-02-21T03:11:08;100746.88;;;8.78;60.11
24234;BME280;12365;43.554;1.388;2024-02-21T03:13:33;100752.75;;;8.75;60.06
24234;BME280;12365;43.554;1.388;2024-02-21T03:15:59;100743.94;;;8.73;60.34
24234;BME280;12365;43.554;1.388;2024-02-21T03:18:24;100744.63;;;8.71;60.17
24234;BME280;12365;43.554;1.388;2024-02-21T03:20:50;100741.59;;;8.64;60.24
24234;BME280;12365;43.554;1.388;2024-02-21T03:23:15;100745.09;;;8.65;60.25
24234;BME280;12365;43.554;1.388;2024-02-21T03:25:40;100739.56;;;8.60;60.26
24234;BME280;12365;43.554;1.388;2024-02-21T03:28:06;100741.25;;;8.60;60.23
24234;BME280;12365;43.554;1.388;2024-02-21T03:30:31;100745.34;;;8.56;60.24
24234;BME280;12365;43.554;1.388;2024-02-21T03:32:58;100752.91;;;8.53;60.24
24234;BME280;12365;43.554;1.388;2024-02-21T03:35:24;100756.19;;;8.51;60.39
24234;BME280;12365;43.554;1.388;2024-02-21T03:37:51;100759.41;;;8.46;60.27
24234;BME280;12365;43.554;1.388;2024-02-21T03:40:17;100769.47;;;8.42;60.46
24234;BME280;12365;43.554;1.388;2024-02-21T03:42:42;100758.03;;;8.40;60.43
24234;BME280;12365;43.554;1.388;2024-02-21T03:45:08;100761.97;;;8.35;60.55
24234;BME280;12365;43.554;1.388;2024-02-21T03:47:34;100770.22;;;8.29;60.41
24234;BME280;12365;43.554;1.388;2024-02-21T03:49:59;100774.31;;;8.25;60.49
24234;BME280;12365;43.554;1.388;2024-02-21T03:52:25;100765.28;;;8.20;60.68
24234;BME280;12365;43.554;1.388;2024-02-21T03:54:50;100769.53;;;8.20;60.50
24234;BME280;12365;43.554;1.388;2024-02-21T03:57:16;100770.22;;;8.17;60.54
24234;BME280;12365;43.554;1.388;2024-02-21T03:59:42;100774.31;;;8.14;60.52
24234;BME280;12365;43.554;1.388;2024-02-21T04:02:07;100771.50;;;8.11;60.45
24234;BME280;12365;43.554;1.388;2024-02-21T04:04:34;100772.94;;;8.07;60.37
24234;BME280;12365;43.554;1.388;2024-02-21T04:07:02;100760.53;;;8.03;60.49
24234;BME280;12365;43.554;1.388;2024-02-21T04:09:32;100753.41;;;8.00;60.49
24234;BME280;12365;43.554;1.388;2024-02-21T04:11:58;100747.88;;;7.96;60.41
24234;BME280;12365;43.554;1.388;2024-02-21T04:14:23;100750.13;;;7.91;60.52
24234;BME280;12365;43.554;1.388;2024-02-21T04:16:49;100747.19;;;7.87;60.54
24234;BME280;12365;43.554;1.388;2024-02-21T04:19:14;100748.75;;;7.85;60.56
24234;BME280;12365;43.554;1.388;2024-02-21T04:21:39;100741.75;;;7.84;60.49
24234;BME280;12365;43.554;1.388;2024-02-21T04:24:05;100741.53;;;7.80;60.35
24234;BME280;12365;43.554;1.388;2024-02-21T04:26:30;100744.16;;;7.80;60.55
24234;BME280;12365;43.554;1.388;2024-02-21T04:28:56;100741.53;;;7.80;60.44
24234;BME280;12365;43.554;1.388;2024-02-21T04:31:21;100739.50;;;7.76;60.47
24234;BME280;12365;43.554;1.388;2024-02-21T04:33:46;100733.41;;;7.76;60.50
24234;BME280;12365;43.554;1.388;2024-02-21T04:36:12;100735.88;;;7.74;60.54
24234;BME280;12365;43.554;1.388;2024-02-21T04:38:37;100734.09;;;7.73;60.41
24234;BME280;12365;43.554;1.388;2024-02-21T04:41:04;100726.06;;;7.70;60.50
24234;BME280;12365;43.554;1.388;2024-02-21T04:43:29;100718.94;;;7.68;60.49
24234;BME280;12365;43.554;1.388;2024-02-21T04:45:55;100717.03;;;7.65;60.63
24234;BME280;12365;43.554;1.388;2024-02-21T04:48:20;100716.00;;;7.63;60.63
24234;BME280;12365;43.554;1.388;2024-02-21T04:50:46;100716.78;;;7.62;60.53
24234;BME280;12365;43.554;1.388;2024-02-21T04:53:11;100714.75;;;7.58;60.34
24234;BME280;12365;43.554;1.388;2024-02-21T04:55:36;100721.66;;;7.57;60.58
24234;BME280;12365;43.554;1.388;2024-02-21T04:58:02;100715.66;;;7.58;60.94
24234;BME280;12365;43.554;1.388;2024-02-21T05:00:27;100720.19;;;7.61;60.53
24234;BME280;12365;43.554;1.388;2024-02-21T05:02:53;100714.19;;;7.62;60.88
24234;BME280;12365;43.554;1.388;2024-02-21T05:05:18;100723.94;;;7.65;60.64
24234;BME280;12365;43.554;1.388;2024-02-21T05:07:44;100717.81;;;7.64;60.58
24234;BME280;12365;43.554;1.388;2024-02-21T05:10:09;100716.00;;;7.63;60.71
24234;BME280;12365;43.554;1.388;2024-02-21T05:12:35;100709.00;;;7.62;60.68
24234;BME280;12365;43.554;1.388;2024-02-21T05:15:00;100715.19;;;7.64;60.63
24234;BME280;12365;43.554;1.388;2024-02-21T05:17:26;100717.72;;;7.63;60.74
24234;BME280;12365;43.554;1.388;2024-02-21T05:19:51;100726.94;;;7.59;60.62
24234;BME280;12365;43.554;1.388;2024-02-21T05:22:17;100725.91;;;7.57;60.92
24234;BME280;12365;43.554;1.388;2024-02-21T05:24:42;100722.19;;;7.53;60.50
24234;BME280;12365;43.554;1.388;2024-02-21T05:27:08;100726.38;;;7.51;60.63
24234;BME280;12365;43.554;1.388;2024-02-21T05:29:33;100718.13;;;7.45;60.64
24234;BME280;12365;43.554;1.388;2024-02-21T05:31:58;100714.63;;;7.45;61.00
24234;BME280;12365;43.554;1.388;2024-02-21T05:34:24;100714.63;;;7.45;60.98
24234;BME280;12365;43.554;1.388;2024-02-21T05:36:51;100716.44;;;7.46;61.13
24234;BME280;12365;43.554;1.388;2024-02-21T05:39:17;100724.09;;;7.44;60.80
24234;BME280;12365;43.554;1.388;2024-02-21T05:41:42;100722.97;;;7.41;60.97
24234;BME280;12365;43.554;1.388;2024-02-21T05:44:08;100719.69;;;7.43;61.02
24234;BME280;12365;43.554;1.388;2024-02-21T05:46:33;100722.97;;;7.41;61.03
24234;BME280;12365;43.554;1.388;2024-02-21T05:48:59;100704.78;;;7.41;61.06
24234;BME280;12365;43.554;1.388;2024-02-21T05:51:24;100699.47;;;7.39;61.13
24234;BME280;12365;43.554;1.388;2024-02-21T05:53:50;100707.41;;;7.41;61.15
24234;BME280;12365;43.554;1.388;2024-02-21T05:56:15;100702.06;;;7.39;61.04
24234;BME280;12365;43.554;1.388;2024-02-21T05:58:40;100706.28;;;7.37;61.26
24234;BME280;12365;43.554;1.388;2024-02-21T06:01:06;100703.41;;;7.34;61.13
24234;BME280;12365;43.554;1.388;2024-02-21T06:03:32;100699.69;;;7.30;61.01
24234;BME280;12365;43.554;1.388;2024-02-21T06:05:58;100698.69;;;7.28;61.20
24234;BME280;12365;43.554;1.388;2024-02-21T06:08:24;100697.66;;;7.26;61.18
24234;BME280;12365;43.554;1.388;2024-02-21T06:10:49;100701.03;;;7.25;61.33
24234;BME280;12365;43.554;1.388;2024-02-21T06:13:17;100691.47;;;7.24;61.21
24234;BME280;12365;43.554;1.388;2024-02-21T06:15:42;100690.44;;;7.22;61.42
24234;BME280;12365;43.554;1.388;2024-02-21T06:18:08;100681.63;;;7.20;61.35
24234;BME280;12365;43.554;1.388;2024-02-21T06:20:33;100685.03;;;7.19;61.47
24234;BME280;12365;43.554;1.388;2024-02-21T06:23:01;100683.88;;;7.15;61.15
24234;BME280;12365;43.554;1.388;2024-02-21T06:25:26;100681.94;;;7.13;61.09
24234;BME280;12365;43.554;1.388;2024-02-21T06:27:52;100677.78;;;7.15;61.42
24234;BME280;12365;43.554;1.388;2024-02-21T06:30:17;100675.94;;;7.14;61.41
24234;BME280;12365;43.554;1.388;2024-02-21T06:32:42;100672.59;;;7.15;61.21
24234;BME280;12365;43.554;1.388;2024-02-21T06:35:08;100665.56;;;7.14;61.11
24234;BME280;12365;43.554;1.388;2024-02-21T06:37:33;100672.59;;;7.15;61.37
24234;BME280;12365;43.554;1.388;2024-02-21T06:39:59;100673.50;;;7.15;61.29
24234;BME280;12365;43.554;1.388;2024-02-21T06:42:24;100682.97;;;7.15;61.26
24234;BME280;12365;43.554;1.388;2024-02-21T06:44:50;100690.75;;;7.15;61.26
24234;BME280;12365;43.554;1.388;2024-02-21T06:47:15;100694.13;;;7.14;61.23
24234;BME280;12365;43.554;1.388;2024-02-21T06:49:41;100701.13;;;7.15;61.15
24234;BME280;12365;43.554;1.388;2024-02-21T06:52:07;100713.44;;;7.18;61.53
24234;BME280;12365;43.554;1.388;2024-02-21T06:54:32;100712.53;;;7.17;61.64
24234;BME280;12365;43.554;1.388;2024-02-21T06:56:58;100713.66;;;7.21;61.46
24234;BME280;12365;43.554;1.388;2024-02-21T06:59:23;100706.00;;;7.22;61.43
24234;BME280;12365;43.554;1.388;2024-02-21T07:01:53;100694.97;;;7.25;61.39
24234;BME280;12365;43.554;1.388;2024-02-21T07:04:19;100695.31;;;7.29;61.28
24234;BME280;12365;43.554;1.388;2024-02-21T07:06:44;100698.91;;;7.31;61.59
24234;BME280;12365;43.554;1.388;2024-02-21T07:09:09;100692.28;;;7.35;61.66
24234;BME280;12365;43.554;1.388;2024-02-21T07:11:35;100692.03;;;7.44;61.34
24234;BME280;12365;43.554;1.388;2024-02-21T07:14:00;100693.28;;;7.49;61.55
24234;BME280;12365;43.554;1.388;2024-02-21T07:16:25;100688.31;;;7.52;61.45
24234;BME280;12365;43.554;1.388;2024-02-21T07:18:51;100687.78;;;7.56;61.53
24234;BME280;12365;43.554;1.388;2024-02-21T07:21:17;100696.81;;;7.61;61.48
24234;BME280;12365;43.554;1.388;2024-02-21T07:23:42;100686.88;;;7.67;61.46
24234;BME280;12365;43.554;1.388;2024-02-21T07:26:08;100681.03;;;7.70;61.29
24234;BME280;12365;43.554;1.388;2024-02-21T07:28:33;100693.63;;;7.77;61.47
24234;BME280;12365;43.554;1.388;2024-02-21T07:30:59;100691.59;;;7.85;61.30
24234;BME280;12365;43.554;1.388;2024-02-21T07:33:25;100694.34;;;7.98;61.45
24234;BME280;12365;43.554;1.388;2024-02-21T07:35:50;100689.09;;;8.10;61.28
24234;BME280;12365;43.554;1.388;2024-02-21T07:38:16;100692.03;;;8.14;61.05
24234;BME280;12365;43.554;1.388;2024-02-21T07:40:44;100687.06;;;8.17;61.11
24234;BME280;12365;43.554;1.388;2024-02-21T07:43:10;100689.31;;;8.24;61.22
24234;BME280;12365;43.554;1.388;2024-02-21T07:45:35;100692.38;;;8.31;61.25
24234;BME280;12365;43.554;1.388;2024-02-21T07:48:01;100683.19;;;8.36;61.02
24234;BME280;12365;43.554;1.388;2024-02-21T07:50:27;100689.88;;;8.44;61.00
24234;BME280;12365;43.554;1.388;2024-02-21T07:52:52;100678.09;;;8.49;60.80
24234;BME280;12365;43.554;1.388;2024-02-21T07:55:18;100679.31;;;8.54;60.96
24234;BME280;12365;43.554;1.388;2024-02-21T07:57:43;100675.34;;;8.59;61.02
24234;BME280;12365;43.554;1.388;2024-02-21T08:00:09;100678.16;;;8.62;61.05
24234;BME280;12365;43.554;1.388;2024-02-21T08:02:38;100676.38;;;8.61;60.67
24234;BME280;12365;43.554;1.388;2024-02-21T08:05:04;100668.75;;;8.64;60.91
24234;BME280;12365;43.554;1.388;2024-02-21T08:07:29;100664.59;;;8.66;60.88
24234;BME280;12365;43.554;1.388;2024-02-21T08:09:56;100658.00;;;8.72;60.96
24234;BME280;12365;43.554;1.388;2024-02-21T08:12:21;100652.19;;;8.76;61.03
24234;BME280;12365;43.554;1.388;2024-02-21T08:14:46;100657.50;;;8.77;60.85
24234;BME280;12365;43.554;1.388;2024-02-21T08:17:12;100649.91;;;8.80;60.87
24234;BME280;12365;43.554;1.388;2024-02-21T08:19:37;100655.22;;;8.82;60.93
24234;BME280;12365;43.554;1.388;2024-02-21T08:22:03;100647.63;;;8.85;61.02
24234;BME280;12365;43.554;1.388;2024-02-21T08:24:28;100656.44;;;8.87;61.03
24234;BME280;12365;43.554;1.388;2024-02-21T08:26:53;100651.44;;;8.90;60.90
24234;BME280;12365;43.554;1.388;2024-02-21T08:29:19;100660.16;;;8.90;60.92
24234;BME280;12365;43.554;1.388;2024-02-21T08:31:44;100653.25;;;8.91;60.55
24234;BME280;12365;43.554;1.388;2024-02-21T08:34:10;100666.25;;;8.91;60.97
24234;BME280;12365;43.554;1.388;2024-02-21T08:36:36;100673.28;;;8.92;60.87
24234;BME280;12365;43.554;1.388;2024-02-21T08:39:02;100682.00;;;8.93;60.84
24234;BME280;12365;43.554;1.388;2024-02-21T08:41:32;100679.09;;;9.01;60.90
24234;BME280;12365;43.554;1.388;2024-02-21T08:43:58;100673.97;;;9.15;60.76
24234;BME280;12365;43.554;1.388;2024-02-21T08:46:23;100676.91;;;9.32;60.89
24234;BME280;12365;43.554;1.388;2024-02-21T08:48:55;100672.31;;;9.55;60.75
24234;BME280;12365;43.554;1.388;2024-02-21T08:51:20;100670.22;;;9.76;60.93
24234;BME280;12365;43.554;1.388;2024-02-21T08:53:47;100661.88;;;9.95;60.51
24234;BME280;12365;43.554;1.388;2024-02-21T08:56:13;100662.38;;;10.16;60.34
24234;BME280;12365;43.554;1.388;2024-02-21T08:58:41;100661.06;;;10.36;60.46
24234;BME280;12365;43.554;1.388;2024-02-21T09:01:07;100663.75;;;10.51;60.25
24234;BME280;12365;43.554;1.388;2024-02-21T09:03:36;100662.25;;;10.69;60.12
24234;BME280;12365;43.554;1.388;2024-02-21T09:06:02;100655.38;;;10.84;59.99
24234;BME280;12365;43.554;1.388;2024-02-21T09:08:27;100664.94;;;10.99;59.90
24234;BME280;12365;43.554;1.388;2024-02-21T09:10:53;100655.22;;;11.11;59.68
24234;BME280;12365;43.554;1.388;2024-02-21T09:13:19;100644.88;;;11.27;59.58
24234;BME280;12365;43.554;1.388;2024-02-21T09:15:44;100639.00;;;11.46;59.41
24234;BME280;12365;43.554;1.388;2024-02-21T09:18:09;100631.25;;;11.63;59.16
24234;BME280;12365;43.554;1.388;2024-02-21T09:20:35;100642.84;;;11.83;59.33
24234;BME280;12365;43.554;1.388;2024-02-21T09:23:00;100626.44;;;12.00;59.17
24234;BME280;12365;43.554;1.388;2024-02-21T09:25:26;100634.47;;;12.20;59.04
24234;BME280;12365;43.554;1.388;2024-02-21T09:27:53;100633.19;;;12.44;58.92
24234;BME280;12365;43.554;1.388;2024-02-21T09:30:19;100621.44;;;12.69;58.60
24234;BME280;12365;43.554;1.388;2024-02-21T09:32:44;100614.53;;;12.87;58.37
24234;BME280;12365;43.554;1.388;2024-02-21T09:35:10;100611.56;;;12.97;58.13
24234;BME280;12365;43.554;1.388;2024-02-21T09:37:35;100605.94;;;12.90;57.92
24234;BME280;12365;43.554;1.388;2024-02-21T09:40:01;100612.56;;;12.83;57.93
24234;BME280;12365;43.554;1.388;2024-02-21T09:42:47;100603.06;;;12.85;58.08
24234;BME280;12365;43.554;1.388;2024-02-21T09:45:22;100608.78;;;12.94;57.82
24234;BME280;12365;43.554;1.388;2024-02-21T09:50:36;100598.50;;;13.15;57.79
24234;BME280;12365;43.554;1.388;2024-02-21T09:53:04;100593.03;;;13.27;57.58
24234;BME280;12365;43.554;1.388;2024-02-21T09:55:33;100603.59;;;13.47;57.53
24234;BME280;12365;43.554;1.388;2024-02-21T09:58:01;100607.13;;;13.65;57.23
24234;BME280;12365;43.554;1.388;2024-02-21T10:00:26;100599.63;;;13.73;57.07
24234;BME280;12365;43.554;1.388;2024-02-21T10:02:53;100595.53;;;13.78;57.00
24234;BME280;12365;43.554;1.388;2024-02-21T10:05:19;100587.88;;;13.82;57.10
24234;BME280;12365;43.554;1.388;2024-02-21T10:07:44;100594.38;;;13.91;56.87
24234;BME280;12365;43.554;1.388;2024-02-21T10:10:10;100588.78;;;14.02;56.96
24234;BME280;12365;43.554;1.388;2024-02-21T10:12:35;100590.25;;;14.15;56.76
24234;BME280;12365;43.554;1.388;2024-02-21T10:15:05;100599.69;;;14.29;56.63
24234;BME280;12365;43.554;1.388;2024-02-21T10:17:32;100599.41;;;14.43;56.39
24234;BME280;12365;43.554;1.388;2024-02-21T10:20:10;100605.94;;;14.51;56.28
24234;BME280;12365;43.554;1.388;2024-02-21T10:22:37;100604.44;;;14.56;56.36
24234;BME280;12365;43.554;1.388;2024-02-21T10:25:11;100608.56;;;14.70;56.28
24234;BME280;12365;43.554;1.388;2024-02-21T10:27:37;100607.66;;;14.89;56.06
24234;BME280;12365;43.554;1.388;2024-02-21T10:30:07;100614.81;;;15.13;55.70
24234;BME280;12365;43.554;1.388;2024-02-21T10:32:33;100608.28;;;15.45;55.52
24234;BME280;12365;43.554;1.388;2024-02-21T10:35:02;100601.25;;;15.67;55.33
24234;BME280;12365;43.554;1.388;2024-02-21T10:37:31;100600.13;;;15.81;55.02
24234;BME280;12365;43.554;1.388;2024-02-21T10:39:57;100587.94;;;15.83;54.91
24234;BME280;12365;43.554;1.388;2024-02-21T10:42:22;100592.34;;;15.84;54.63
24234;BME280;12365;43.554;1.388;2024-02-21T10:44:51;100581.94;;;15.87;54.76
24234;BME280;12365;43.554;1.388;2024-02-21T10:47:17;100581.25;;;15.91;54.62
24234;BME280;12365;43.554;1.388;2024-02-21T10:49:49;100579.69;;;15.96;54.66
24234;BME280;12365;43.554;1.388;2024-02-21T10:52:51;100571.78;;;15.96;54.60
24234;BME280;12365;43.554;1.388;2024-02-21T10:55:37;100574.19;;;15.90;54.62
24234;BME280;12365;43.554;1.388;2024-02-21T10:58:04;100574.91;;;15.86;54.38
24234;BME280;12365;43.554;1.388;2024-02-21T11:00:30;100579.31;;;15.87;54.56
24234;BME280;12365;43.554;1.388;2024-02-21T11:02:57;100568.84;;;15.89;54.57
24234;BME280;12365;43.554;1.388;2024-02-21T11:05:24;100573.47;;;15.94;54.48
24234;BME280;12365;43.554;1.388;2024-02-21T11:07:51;100565.75;;;15.99;54.37
24234;BME280;12365;43.554;1.388;2024-02-21T11:10:24;100571.22;;;16.05;54.36
24234;BME280;12365;43.554;1.388;2024-02-21T11:12:53;100570.59;;;16.11;54.29
24234;BME280;12365;43.554;1.388;2024-02-21T11:15:18;100567.22;;;16.15;54.05
24234;BME280;12365;43.554;1.388;2024-02-21T11:17:53;100563.81;;;16.17;54.02
24234;BME280;12365;43.554;1.388;2024-02-21T11:20:19;100558.69;;;16.20;54.00
24234;BME280;12365;43.554;1.388;2024-02-21T11:22:45;100560.53;;;16.23;53.82
24234;BME280;12365;43.554;1.388;2024-02-21T11:25:10;100551.91;;;16.27;53.84
24234;BME280;12365;43.554;1.388;2024-02-21T11:27:38;100548.66;;;16.34;53.74
24234;BME280;12365;43.554;1.388;2024-02-21T11:30:11;100547.88;;;16.37;53.68
24234;BME280;12365;43.554;1.388;2024-02-21T11:32:37;100554.28;;;16.43;53.64
24234;BME280;12365;43.554;1.388;2024-02-21T11:35:03;100552.75;;;16.50;53.42
24234;BME280;12365;43.554;1.388;2024-02-21T11:37:34;100551.22;;;16.57;53.26
24234;BME280;12365;43.554;1.388;2024-02-21T11:40:02;100547.97;;;16.64;53.27
24234;BME280;12365;43.554;1.388;2024-02-21T11:42:29;100535.19;;;16.75;53.29
24234;BME280;12365;43.554;1.388;2024-02-21T11:44:56;100530.38;;;16.87;52.89
24234;BME280;12365;43.554;1.388;2024-02-21T11:47:24;100530.91;;;17.02;52.92
24234;BME280;12365;43.554;1.388;2024-02-21T11:49:50;100536.69;;;17.18;52.84
24234;BME280;12365;43.554;1.388;2024-02-21T11:52:21;100533.03;;;17.40;52.60
24234;BME280;12365;43.554;1.388;2024-02-21T11:54:50;100522.25;;;17.61;52.22
24234;BME280;12365;43.554;1.388;2024-02-21T11:57:15;100514.88;;;17.77;51.84
24234;BME280;12365;43.554;1.388;2024-02-21T11:59:40;100514.41;;;17.91;51.62
24234;BME280;12365;43.554;1.388;2024-02-21T12:02:06;100508.47;;;17.98;51.31
24234;BME280;12365;43.554;1.388;2024-02-21T12:04:32;100514.06;;;18.09;50.84
24234;BME280;12365;43.554;1.388;2024-02-21T12:06:58;100510.13;;;18.25;50.54
24234;BME280;12365;43.554;1.388;2024-02-21T12:09:25;100512.22;;;18.36;50.26
24234;BME280;12365;43.554;1.388;2024-02-21T12:12:06;100505.44;;;18.46;50.22
24234;BME280;12365;43.554;1.388;2024-02-21T12:14:33;100491.44;;;18.50;49.94
24234;BME280;12365;43.554;1.388;2024-02-21T12:16:59;100486.03;;;18.46;49.66
24234;BME280;12365;43.554;1.388;2024-02-21T12:19:25;100488.66;;;18.44;49.53
24234;BME280;12365;43.554;1.388;2024-02-21T12:21:51;100477.25;;;18.47;49.45
24234;BME280;12365;43.554;1.388;2024-02-21T12:24:24;100480.03;;;18.51;49.32
24234;BME280;12365;43.554;1.388;2024-02-21T12:26:53;100484.50;;;18.54;49.16
24234;BME280;12365;43.554;1.388;2024-02-21T12:29:19;100473.03;;;18.53;49.20
24234;BME280;12365;43.554;1.388;2024-02-21T12:31:45;100473.97;;;18.55;48.83
24234;BME280;12365;43.554;1.388;2024-02-21T12:34:11;100464.34;;;18.57;49.05
24234;BME280;12365;43.554;1.388;2024-02-21T12:36:41;100469.63;;;18.57;48.74
24234;BME280;12365;43.554;1.388;2024-02-21T12:39:08;100466.91;;;18.54;48.75
24234;BME280;12365;43.554;1.388;2024-02-21T12:41:34;100465.09;;;18.53;48.38
24234;BME280;12365;43.554;1.388;2024-02-21T12:44:00;100459.81;;;18.53;48.34
24234;BME280;12365;43.554;1.388;2024-02-21T12:46:26;100454.69;;;18.59;48.35
24234;BME280;12365;43.554;1.388;2024-02-21T12:48:51;100453.03;;;18.63;48.12
24234;BME280;12365;43.554;1.388;2024-02-21T12:51:16;100447.09;;;18.72;48.33
24234;BME280;12365;43.554;1.388;2024-02-21T12:53:47;100442.75;;;18.74;48.02
24234;BME280;12365;43.554;1.388;2024-02-21T12:56:12;100433.22;;;18.79;47.75